Terminal Aerodrome Forecast
Issued by NWS Missoula, MT

Home | Current Version | Previous Version | Text Only | Print | Product List | Glossary On
Versions: 1 2 3 4 5 6 7 8 9 10 11 12
181
FTUS45 KMSO 261120
TAFGPI
TAF
KGPI 261120Z 2612/2712 02007KT P6SM SKC
     FM262100 15004KT P6SM VCTS SCT060CB BKN080
     FM262300 23008G16KT P6SM -TSRA BKN050CB
     FM270100 02007KT P6SM VCSH BKN080=

USA.gov is the U.S. government's official web portal to all federal, state and local government web resources and services.